createdAt,value
2022-10-28T00:01:08.264Z,7.20
2022-10-28T00:06:07.399Z,6.53
2022-10-28T00:11:09.534Z,5.18
2022-10-28T00:16:09.092Z,7.13
2022-10-28T00:21:08.606Z,7.97
2022-10-28T00:26:11.572Z,5.35
2022-10-28T00:31:09.935Z,8.25
2022-10-28T00:36:15.865Z,6.95
2022-10-28T00:41:16.668Z,6.30
2022-10-28T00:46:19.882Z,6.43
2022-10-28T00:51:22.813Z,6.43
2022-10-28T00:56:22.311Z,8.88
2022-10-28T01:01:19.182Z,7.45
2022-10-28T01:06:16.791Z,5.72
2022-10-28T01:11:49.762Z,7.15
2022-10-28T01:17:10.052Z,6.18
2022-10-28T01:22:20.460Z,8.25
2022-10-28T01:27:48.308Z,9.23
2022-10-28T01:32:56.346Z,6.50
2022-10-28T01:38:13.254Z,6.22
2022-10-28T01:43:15.469Z,9.30
2022-10-28T01:48:16.753Z,7.00
2022-10-28T01:53:17.105Z,7.93
2022-10-28T01:58:19.171Z,13.98
2022-10-28T02:03:17.712Z,7.35
2022-10-28T02:08:43.414Z,6.95
2022-10-28T02:13:51.602Z,7.75
2022-10-28T02:18:59.891Z,8.13
2022-10-28T02:24:02.608Z,13.65
2022-10-28T02:29:08.017Z,12.77
2022-10-28T02:34:09.950Z,17.45
2022-10-28T02:39:08.029Z,11.57
2022-10-28T02:44:08.597Z,11.80
2022-10-28T02:49:09.192Z,11.15
2022-10-28T02:54:10.001Z,10.38
2022-10-28T02:59:11.014Z,12.43
2022-10-28T03:04:08.751Z,13.90
2022-10-28T03:09:05.800Z,17.48
2022-10-28T03:14:04.131Z,12.75
2022-10-28T03:19:01.373Z,16.30
2022-10-28T03:23:59.027Z,13.98
2022-10-28T03:28:55.995Z,17.98
2022-10-28T03:33:52.968Z,13.32
2022-10-28T03:38:49.980Z,11.30
2022-10-28T03:43:48.171Z,14.00
2022-10-28T03:48:45.066Z,14.20
2022-10-28T03:53:41.873Z,15.50
2022-10-28T03:58:41.040Z,13.25
2022-10-28T04:03:41.379Z,24.50
2022-10-28T04:08:38.535Z,11.43
2022-10-28T04:13:37.659Z,14.40
2022-10-28T04:18:35.392Z,15.02
2022-10-28T04:23:33.206Z,16.38
2022-10-28T04:28:30.337Z,15.88
2022-10-28T04:33:29.400Z,13.50
2022-10-28T04:38:26.513Z,35.80
2022-10-28T04:43:24.309Z,20.80
2022-10-28T04:48:21.510Z,36.58
2022-10-28T04:53:18.434Z,23.38
2022-10-28T04:58:18.300Z,15.40
2022-10-28T05:03:16.107Z,25.13
2022-10-28T05:08:19.145Z,20.83
2022-10-28T05:13:26.136Z,25.00
2022-10-28T05:18:26.235Z,49.47
2022-10-28T05:23:28.641Z,42.95
2022-10-28T05:28:27.707Z,39.28
2022-10-28T05:33:25.540Z,39.13
2022-10-28T05:38:50.503Z,43.35
2022-10-28T05:43:47.745Z,30.03
2022-10-28T05:48:47.676Z,24.42
2022-10-28T05:53:44.661Z,25.42
2022-10-28T05:58:44.962Z,25.80
2022-10-28T06:03:42.078Z,28.48
2022-10-28T06:08:46.894Z,21.83
2022-10-28T06:13:57.237Z,24.83
2022-10-28T06:19:13.799Z,22.88
2022-10-28T06:24:16.445Z,24.92
2022-10-28T06:29:29.302Z,25.48
2022-10-28T06:34:37.448Z,20.88
2022-10-28T06:39:37.687Z,22.02
2022-10-28T06:44:35.071Z,22.85
2022-10-28T06:49:36.246Z,22.08
2022-10-28T06:54:33.243Z,20.58
2022-10-28T06:59:34.097Z,23.35
2022-10-28T07:04:38.638Z,21.85
2022-10-28T07:09:39.257Z,26.77
2022-10-28T07:14:44.574Z,20.77
2022-10-28T07:19:41.783Z,20.65
2022-10-28T07:24:43.371Z,20.00
2022-10-28T07:29:44.197Z,23.95
2022-10-28T07:34:44.356Z,18.60
2022-10-28T07:39:41.491Z,16.38
2022-10-28T07:44:39.394Z,15.82
2022-10-28T07:49:40.915Z,11.27
2022-10-28T07:54:38.499Z,11.88
2022-10-28T07:59:38.977Z,17.13
2022-10-28T08:04:39.785Z,17.58
2022-10-28T08:09:41.551Z,14.23
2022-10-28T08:14:42.812Z,11.82
2022-10-28T08:19:41.193Z,9.65
2022-10-28T08:24:41.501Z,12.70
2022-10-28T08:29:38.440Z,13.82
2022-10-28T08:34:37.948Z,10.43
2022-10-28T08:39:38.609Z,7.80
2022-10-28T08:45:22.453Z,11.90
2022-10-28T08:50:24.921Z,11.57
2022-10-28T08:55:35.900Z,7.50
2022-10-28T09:00:34.471Z,8.82
2022-10-28T09:05:34.676Z,6.50
2022-10-28T09:10:53.346Z,6.80
2022-10-28T09:16:07.435Z,6.60
2022-10-28T09:26:19.837Z,7.72
2022-10-28T09:31:25.743Z,7.97
2022-10-28T09:36:28.700Z,5.97
2022-10-28T09:41:31.641Z,10.00
2022-10-28T09:46:34.625Z,6.82
2022-10-28T09:51:47.634Z,8.15
2022-10-28T09:56:46.440Z,7.20
2022-10-28T10:01:49.232Z,10.00
2022-10-28T10:06:52.286Z,11.77
2022-10-28T10:11:52.535Z,11.00
2022-10-28T10:16:58.815Z,15.77
2022-10-28T10:22:06.804Z,13.98
2022-10-28T10:27:26.527Z,47.53
2022-10-28T10:32:28.690Z,7.10
2022-10-28T10:37:27.661Z,17.45
2022-10-28T10:42:27.429Z,10.00
2022-10-28T10:47:24.379Z,12.65
2022-10-28T10:52:25.437Z,14.30
2022-10-28T10:57:26.265Z,11.90
2022-10-28T12:08:31.673Z,7.47
2022-10-28T12:13:40.708Z,5.15
2022-10-28T12:24:24.322Z,4.25
2022-10-28T12:29:33.479Z,6.43
2022-10-28T12:35:01.238Z,7.43
2022-10-28T12:40:06.396Z,9.25
2022-10-28T12:45:13.588Z,12.05
2022-10-28T12:50:20.352Z,5.13
2022-10-28T12:55:31.344Z,5.90
2022-10-28T13:00:35.266Z,5.03
2022-10-28T13:05:43.309Z,6.53
2022-10-28T13:10:47.968Z,5.88
2022-10-28T13:21:28.647Z,10.18
2022-10-28T13:26:30.627Z,5.00
2022-10-28T13:31:42.071Z,8.00
2022-10-28T13:36:42.355Z,9.10
2022-10-28T13:41:49.312Z,7.47
2022-10-28T13:47:25.917Z,9.85
2022-10-28T13:52:29.922Z,10.82
2022-10-28T13:58:04.024Z,9.27
2022-10-28T14:03:03.212Z,9.02
2022-10-28T14:08:02.360Z,5.03
2022-10-28T14:13:08.052Z,3.85
2022-10-28T14:18:42.488Z,13.10
2022-10-28T14:24:09.440Z,12.63
2022-10-28T14:29:31.533Z,19.27
2022-10-28T14:34:43.095Z,14.50
2022-10-28T14:39:58.328Z,14.57
2022-10-28T14:50:14.994Z,22.98
2022-10-28T14:55:22.426Z,15.95
2022-10-28T15:00:25.356Z,29.98
2022-10-28T15:05:24.163Z,23.70
2022-10-28T15:10:27.270Z,26.50
2022-10-28T15:15:26.157Z,26.67
2022-10-28T15:20:27.699Z,26.23
2022-10-28T15:25:25.125Z,40.78
2022-10-28T15:30:25.974Z,40.35
2022-10-28T15:35:39.254Z,43.75
2022-10-28T15:40:39.518Z,70.22
2022-10-28T15:45:42.314Z,49.83
2022-10-28T15:50:43.078Z,51.83
2022-10-28T15:56:02.943Z,44.78
2022-10-28T16:00:59.205Z,39.35
2022-10-28T16:05:57.550Z,41.45
2022-10-28T16:11:15.537Z,37.10
2022-10-28T16:16:27.804Z,44.25
2022-10-28T16:21:30.488Z,45.47
2022-10-28T16:26:29.615Z,42.92
2022-10-28T16:31:30.468Z,44.85
2022-10-28T16:36:27.939Z,60.90
2022-10-28T16:41:30.151Z,48.50
2022-10-28T16:46:29.260Z,46.47
2022-10-28T16:51:31.202Z,44.33
2022-10-28T16:56:28.228Z,58.38
2022-10-28T17:01:25.446Z,54.95
2022-10-28T17:06:25.859Z,43.92
2022-10-28T17:11:22.989Z,37.15
2022-10-28T17:16:19.932Z,37.58
2022-10-28T17:21:16.751Z,49.25
2022-10-28T17:26:14.325Z,65.43
2022-10-28T17:31:13.003Z,55.40
2022-10-28T17:36:12.621Z,59.72
2022-10-28T17:41:09.779Z,49.45
2022-10-28T17:46:08.680Z,34.13
2022-10-28T17:51:06.105Z,69.63
2022-10-28T17:56:05.325Z,45.50
2022-10-28T18:01:07.816Z,46.45
2022-10-28T18:06:06.412Z,44.42
2022-10-28T18:11:04.524Z,57.65
2022-10-28T18:16:04.530Z,53.08
2022-10-28T18:21:02.529Z,51.15
2022-10-28T18:26:00.430Z,68.85
2022-10-28T18:31:01.376Z,46.28
2022-10-28T18:35:58.684Z,48.22
2022-10-28T18:40:56.394Z,60.60
2022-10-28T18:45:53.821Z,50.60
2022-10-28T18:50:56.510Z,62.83
2022-10-28T18:55:53.782Z,43.67
2022-10-28T19:00:52.479Z,48.80
2022-10-28T19:05:50.081Z,48.58
2022-10-28T19:10:48.028Z,37.17
2022-10-28T19:15:48.234Z,46.03
2022-10-28T19:20:47.390Z,44.58
2022-10-28T19:25:53.818Z,41.78
2022-10-28T19:31:00.932Z,40.50
2022-10-28T19:36:13.844Z,46.25
2022-10-28T19:41:12.569Z,48.60
2022-10-28T19:46:13.105Z,44.10
2022-10-28T19:51:13.651Z,46.88
2022-10-28T19:56:21.359Z,52.55
2022-10-28T20:01:19.521Z,48.22
2022-10-28T20:06:19.070Z,46.40
2022-10-28T20:11:23.100Z,54.08
2022-10-28T20:16:25.380Z,52.05
2022-10-28T20:21:27.099Z,43.80
2022-10-28T20:26:25.673Z,37.47
2022-10-28T20:31:24.921Z,37.08
2022-10-28T20:36:24.633Z,30.92
2022-10-28T20:41:22.341Z,46.83
2022-10-28T20:46:20.332Z,35.72
2022-10-28T20:51:19.360Z,31.73
2022-10-28T20:56:18.664Z,36.13
2022-10-28T21:01:18.381Z,37.67
2022-10-28T21:06:16.939Z,35.42
2022-10-28T21:11:16.086Z,37.03
2022-10-28T21:16:13.745Z,31.73
2022-10-28T21:21:11.628Z,31.17
2022-10-28T21:26:11.094Z,31.63
2022-10-28T21:31:10.145Z,29.85
2022-10-28T21:36:11.831Z,32.08
2022-10-28T21:41:11.664Z,33.90
2022-10-28T21:46:09.756Z,28.48
2022-10-28T21:51:13.421Z,29.08
2022-10-28T21:56:17.608Z,26.87
2022-10-28T22:01:17.233Z,26.48
2022-10-28T22:06:15.103Z,26.25
2022-10-28T22:11:14.526Z,30.33
2022-10-28T22:16:12.871Z,25.17
2022-10-28T22:21:11.479Z,25.30
2022-10-28T22:26:11.144Z,27.05
2022-10-28T22:31:10.123Z,28.25
2022-10-28T22:36:09.434Z,27.25
2022-10-28T22:41:11.417Z,28.77
2022-10-28T22:46:09.333Z,27.45
2022-10-28T22:51:06.670Z,30.23
2022-10-28T22:56:06.483Z,23.65
2022-10-28T23:01:09.474Z,26.45
2022-10-28T23:06:07.593Z,19.63
2022-10-28T23:11:05.110Z,17.40
2022-10-28T23:16:06.114Z,19.85
2022-10-28T23:21:08.091Z,15.25
2022-10-28T23:26:05.541Z,18.85
2022-10-28T23:31:03.553Z,19.10
2022-10-28T23:36:03.119Z,16.25
2022-10-28T23:41:01.959Z,13.15
2022-10-28T23:45:59.270Z,15.75
2022-10-28T23:50:57.052Z,14.50
2022-10-28T23:55:54.073Z,24.15
